sensor_id;sensor_type;location;lat;lon;timestamp;P1;durP1;ratioP1;P2;durP2;ratioP2
14470;SDS011;7321;50.802;4.336;2024-01-30T00:01:38;6.40;;;5.80;;
14470;SDS011;7321;50.802;4.336;2024-01-30T00:04:04;6.30;;;5.47;;
14470;SDS011;7321;50.802;4.336;2024-01-30T00:06:33;7.90;;;5.40;;
14470;SDS011;7321;50.802;4.336;2024-01-30T00:08:59;6.20;;;5.60;;
14470;SDS011;7321;50.802;4.336;2024-01-30T00:11:25;7.47;;;5.50;;
14470;SDS011;7321;50.802;4.336;2024-01-30T00:13:54;8.37;;;5.70;;
14470;SDS011;7321;50.802;4.336;2024-01-30T00:16:24;5.80;;;5.13;;
14470;SDS011;7321;50.802;4.336;2024-01-30T00:18:51;6.27;;;5.37;;
14470;SDS011;7321;50.802;4.336;2024-01-30T00:21:17;6.33;;;5.30;;
14470;SDS011;7321;50.802;4.336;2024-01-30T00:23:43;7.13;;;5.67;;
14470;SDS011;7321;50.802;4.336;2024-01-30T00:26:09;6.20;;;5.17;;
14470;SDS011;7321;50.802;4.336;2024-01-30T00:28:36;8.03;;;5.83;;
14470;SDS011;7321;50.802;4.336;2024-01-30T00:31:06;7.07;;;5.37;;
14470;SDS011;7321;50.802;4.336;2024-01-30T00:33:38;6.13;;;5.53;;
14470;SDS011;7321;50.802;4.336;2024-01-30T00:36:05;9.00;;;6.03;;
14470;SDS011;7321;50.802;4.336;2024-01-30T00:38:31;5.73;;;5.13;;
14470;SDS011;7321;50.802;4.336;2024-01-30T00:40:58;6.30;;;5.20;;
14470;SDS011;7321;50.802;4.336;2024-01-30T00:43:24;6.03;;;4.90;;
14470;SDS011;7321;50.802;4.336;2024-01-30T00:45:52;5.83;;;5.00;;
14470;SDS011;7321;50.802;4.336;2024-01-30T00:48:19;6.40;;;5.13;;
14470;SDS011;7321;50.802;4.336;2024-01-30T00:50:46;6.50;;;5.63;;
14470;SDS011;7321;50.802;4.336;2024-01-30T00:53:12;7.93;;;5.67;;
14470;SDS011;7321;50.802;4.336;2024-01-30T00:55:38;6.10;;;5.23;;
14470;SDS011;7321;50.802;4.336;2024-01-30T00:58:04;6.77;;;5.67;;
14470;SDS011;7321;50.802;4.336;2024-01-30T01:00:30;5.90;;;4.67;;
14470;SDS011;7321;50.802;4.336;2024-01-30T01:02:57;5.77;;;5.13;;
14470;SDS011;7321;50.802;4.336;2024-01-30T01:05:24;5.87;;;5.27;;
14470;SDS011;7321;50.802;4.336;2024-01-30T01:07:50;5.87;;;4.87;;
14470;SDS011;7321;50.802;4.336;2024-01-30T01:10:19;6.63;;;5.10;;
14470;SDS011;7321;50.802;4.336;2024-01-30T01:12:45;5.70;;;4.87;;
14470;SDS011;7321;50.802;4.336;2024-01-30T01:15:11;7.63;;;5.50;;
14470;SDS011;7321;50.802;4.336;2024-01-30T01:17:38;5.87;;;5.00;;
14470;SDS011;7321;50.802;4.336;2024-01-30T01:20:04;5.57;;;4.90;;
14470;SDS011;7321;50.802;4.336;2024-01-30T01:22:33;5.53;;;4.93;;
14470;SDS011;7321;50.802;4.336;2024-01-30T01:24:59;5.33;;;4.83;;
14470;SDS011;7321;50.802;4.336;2024-01-30T01:27:26;6.30;;;5.50;;
14470;SDS011;7321;50.802;4.336;2024-01-30T01:29:52;6.03;;;5.43;;
14470;SDS011;7321;50.802;4.336;2024-01-30T01:32:18;5.63;;;5.10;;
14470;SDS011;7321;50.802;4.336;2024-01-30T01:34:44;5.50;;;5.00;;
14470;SDS011;7321;50.802;4.336;2024-01-30T01:37:10;5.87;;;4.80;;
14470;SDS011;7321;50.802;4.336;2024-01-30T01:39:36;5.80;;;5.20;;
14470;SDS011;7321;50.802;4.336;2024-01-30T01:42:02;5.30;;;4.80;;
14470;SDS011;7321;50.802;4.336;2024-01-30T01:44:28;7.27;;;5.40;;
14470;SDS011;7321;50.802;4.336;2024-01-30T01:46:55;6.40;;;5.00;;
14470;SDS011;7321;50.802;4.336;2024-01-30T01:49:22;5.70;;;4.93;;
14470;SDS011;7321;50.802;4.336;2024-01-30T01:51:50;5.63;;;5.10;;
14470;SDS011;7321;50.802;4.336;2024-01-30T01:54:18;5.33;;;4.80;;
14470;SDS011;7321;50.802;4.336;2024-01-30T01:56:45;6.30;;;4.83;;
14470;SDS011;7321;50.802;4.336;2024-01-30T01:59:11;6.77;;;4.87;;
14470;SDS011;7321;50.802;4.336;2024-01-30T02:01:37;5.33;;;4.83;;
14470;SDS011;7321;50.802;4.336;2024-01-30T02:04:04;6.83;;;5.10;;
14470;SDS011;7321;50.802;4.336;2024-01-30T02:06:30;9.10;;;5.40;;
14470;SDS011;7321;50.802;4.336;2024-01-30T02:08:57;7.80;;;5.40;;
14470;SDS011;7321;50.802;4.336;2024-01-30T02:11:23;6.37;;;5.00;;
14470;SDS011;7321;50.802;4.336;2024-01-30T02:13:49;6.77;;;4.87;;
14470;SDS011;7321;50.802;4.336;2024-01-30T02:16:15;5.77;;;5.00;;
14470;SDS011;7321;50.802;4.336;2024-01-30T02:18:44;6.13;;;4.97;;
14470;SDS011;7321;50.802;4.336;2024-01-30T02:21:13;6.67;;;5.40;;
14470;SDS011;7321;50.802;4.336;2024-01-30T02:23:46;6.47;;;4.87;;
14470;SDS011;7321;50.802;4.336;2024-01-30T02:26:13;8.00;;;4.97;;
14470;SDS011;7321;50.802;4.336;2024-01-30T02:28:39;6.43;;;5.10;;
14470;SDS011;7321;50.802;4.336;2024-01-30T02:31:05;6.83;;;4.47;;
14470;SDS011;7321;50.802;4.336;2024-01-30T02:33:31;6.63;;;4.87;;
14470;SDS011;7321;50.802;4.336;2024-01-30T02:35:57;5.70;;;4.80;;
14470;SDS011;7321;50.802;4.336;2024-01-30T02:38:23;6.63;;;4.83;;
14470;SDS011;7321;50.802;4.336;2024-01-30T02:40:50;8.37;;;4.83;;
14470;SDS011;7321;50.802;4.336;2024-01-30T02:43:15;6.03;;;4.40;;
14470;SDS011;7321;50.802;4.336;2024-01-30T02:45:41;6.33;;;5.13;;
14470;SDS011;7321;50.802;4.336;2024-01-30T02:48:08;6.87;;;4.90;;
14470;SDS011;7321;50.802;4.336;2024-01-30T02:50:33;5.60;;;4.97;;
14470;SDS011;7321;50.802;4.336;2024-01-30T02:52:59;6.33;;;5.10;;
14470;SDS011;7321;50.802;4.336;2024-01-30T02:55:25;6.73;;;5.03;;
14470;SDS011;7321;50.802;4.336;2024-01-30T02:57:51;6.30;;;5.07;;
14470;SDS011;7321;50.802;4.336;2024-01-30T03:00:17;5.80;;;5.20;;
14470;SDS011;7321;50.802;4.336;2024-01-30T03:02:45;7.00;;;4.90;;
14470;SDS011;7321;50.802;4.336;2024-01-30T03:05:11;6.67;;;5.20;;
14470;SDS011;7321;50.802;4.336;2024-01-30T03:07:37;6.67;;;5.20;;
14470;SDS011;7321;50.802;4.336;2024-01-30T03:10:06;6.87;;;5.37;;
14470;SDS011;7321;50.802;4.336;2024-01-30T03:12:32;8.47;;;5.33;;
14470;SDS011;7321;50.802;4.336;2024-01-30T03:14:58;6.87;;;5.10;;
14470;SDS011;7321;50.802;4.336;2024-01-30T03:17:24;6.83;;;5.30;;
14470;SDS011;7321;50.802;4.336;2024-01-30T03:19:50;5.93;;;4.87;;
14470;SDS011;7321;50.802;4.336;2024-01-30T03:22:16;8.10;;;5.27;;
14470;SDS011;7321;50.802;4.336;2024-01-30T03:24:42;6.20;;;5.33;;
14470;SDS011;7321;50.802;4.336;2024-01-30T03:27:08;6.20;;;5.13;;
14470;SDS011;7321;50.802;4.336;2024-01-30T03:29:34;5.50;;;5.00;;
14470;SDS011;7321;50.802;4.336;2024-01-30T03:32:00;8.00;;;5.07;;
14470;SDS011;7321;50.802;4.336;2024-01-30T03:34:26;7.87;;;5.17;;
14470;SDS011;7321;50.802;4.336;2024-01-30T03:36:51;5.67;;;4.90;;
14470;SDS011;7321;50.802;4.336;2024-01-30T03:39:17;6.77;;;5.30;;
14470;SDS011;7321;50.802;4.336;2024-01-30T03:41:43;6.20;;;5.20;;
14470;SDS011;7321;50.802;4.336;2024-01-30T03:44:09;7.03;;;4.93;;
14470;SDS011;7321;50.802;4.336;2024-01-30T03:46:35;6.33;;;4.80;;
14470;SDS011;7321;50.802;4.336;2024-01-30T03:49:01;8.10;;;5.20;;
14470;SDS011;7321;50.802;4.336;2024-01-30T03:51:27;6.17;;;4.93;;
14470;SDS011;7321;50.802;4.336;2024-01-30T03:53:53;6.00;;;4.70;;
14470;SDS011;7321;50.802;4.336;2024-01-30T03:56:19;6.03;;;5.40;;
14470;SDS011;7321;50.802;4.336;2024-01-30T03:58:45;8.70;;;5.50;;
14470;SDS011;7321;50.802;4.336;2024-01-30T04:01:14;6.13;;;4.97;;
14470;SDS011;7321;50.802;4.336;2024-01-30T04:03:40;5.80;;;5.23;;
14470;SDS011;7321;50.802;4.336;2024-01-30T04:06:06;6.53;;;5.17;;
14470;SDS011;7321;50.802;4.336;2024-01-30T04:08:32;7.57;;;5.40;;
14470;SDS011;7321;50.802;4.336;2024-01-30T04:10:58;6.00;;;5.40;;
14470;SDS011;7321;50.802;4.336;2024-01-30T04:13:24;8.00;;;5.40;;
14470;SDS011;7321;50.802;4.336;2024-01-30T04:15:49;6.07;;;5.30;;
14470;SDS011;7321;50.802;4.336;2024-01-30T04:18:15;6.80;;;5.60;;
14470;SDS011;7321;50.802;4.336;2024-01-30T04:20:41;5.97;;;5.30;;
14470;SDS011;7321;50.802;4.336;2024-01-30T04:23:07;8.23;;;6.03;;
14470;SDS011;7321;50.802;4.336;2024-01-30T04:25:33;6.10;;;5.50;;
14470;SDS011;7321;50.802;4.336;2024-01-30T04:27:59;7.37;;;5.80;;
14470;SDS011;7321;50.802;4.336;2024-01-30T04:30:24;8.80;;;5.70;;
14470;SDS011;7321;50.802;4.336;2024-01-30T04:32:50;6.13;;;5.53;;
14470;SDS011;7321;50.802;4.336;2024-01-30T04:35:16;7.80;;;6.10;;
14470;SDS011;7321;50.802;4.336;2024-01-30T04:37:42;7.43;;;5.73;;
14470;SDS011;7321;50.802;4.336;2024-01-30T04:40:08;6.40;;;5.60;;
14470;SDS011;7321;50.802;4.336;2024-01-30T04:42:34;8.00;;;5.93;;
14470;SDS011;7321;50.802;4.336;2024-01-30T04:45:00;8.80;;;5.37;;
14470;SDS011;7321;50.802;4.336;2024-01-30T04:47:26;7.33;;;5.73;;
14470;SDS011;7321;50.802;4.336;2024-01-30T04:49:51;9.17;;;5.70;;
14470;SDS011;7321;50.802;4.336;2024-01-30T04:52:17;6.83;;;5.50;;
14470;SDS011;7321;50.802;4.336;2024-01-30T04:54:43;6.73;;;5.50;;
14470;SDS011;7321;50.802;4.336;2024-01-30T04:57:09;9.77;;;5.53;;
14470;SDS011;7321;50.802;4.336;2024-01-30T04:59:37;6.60;;;5.53;;
14470;SDS011;7321;50.802;4.336;2024-01-30T05:02:03;6.27;;;5.67;;
14470;SDS011;7321;50.802;4.336;2024-01-30T05:04:29;7.20;;;6.07;;
14470;SDS011;7321;50.802;4.336;2024-01-30T05:06:54;9.83;;;6.10;;
14470;SDS011;7321;50.802;4.336;2024-01-30T05:09:20;9.47;;;5.90;;
14470;SDS011;7321;50.802;4.336;2024-01-30T05:11:46;6.03;;;5.43;;
14470;SDS011;7321;50.802;4.336;2024-01-30T05:14:12;7.17;;;5.97;;
14470;SDS011;7321;50.802;4.336;2024-01-30T05:16:40;6.53;;;5.80;;
14470;SDS011;7321;50.802;4.336;2024-01-30T05:19:06;6.13;;;5.53;;
14470;SDS011;7321;50.802;4.336;2024-01-30T05:21:32;8.23;;;6.00;;
14470;SDS011;7321;50.802;4.336;2024-01-30T05:23:58;11.93;;;5.70;;
14470;SDS011;7321;50.802;4.336;2024-01-30T05:26:24;6.40;;;5.33;;
14470;SDS011;7321;50.802;4.336;2024-01-30T05:28:49;6.23;;;5.40;;
14470;SDS011;7321;50.802;4.336;2024-01-30T05:31:15;8.50;;;5.57;;
14470;SDS011;7321;50.802;4.336;2024-01-30T05:33:41;8.73;;;5.97;;
14470;SDS011;7321;50.802;4.336;2024-01-30T05:36:07;7.77;;;5.30;;
14470;SDS011;7321;50.802;4.336;2024-01-30T05:38:33;6.77;;;5.63;;
14470;SDS011;7321;50.802;4.336;2024-01-30T05:40:58;7.87;;;6.27;;
14470;SDS011;7321;50.802;4.336;2024-01-30T05:43:24;7.50;;;6.10;;
14470;SDS011;7321;50.802;4.336;2024-01-30T05:45:50;7.43;;;5.87;;
14470;SDS011;7321;50.802;4.336;2024-01-30T05:48:17;8.33;;;6.40;;
14470;SDS011;7321;50.802;4.336;2024-01-30T05:50:43;7.33;;;6.17;;
14470;SDS011;7321;50.802;4.336;2024-01-30T05:53:10;7.07;;;6.27;;
14470;SDS011;7321;50.802;4.336;2024-01-30T05:55:36;6.87;;;6.10;;
14470;SDS011;7321;50.802;4.336;2024-01-30T05:58:02;7.17;;;6.47;;
14470;SDS011;7321;50.802;4.336;2024-01-30T06:00:29;7.40;;;6.70;;
14470;SDS011;7321;50.802;4.336;2024-01-30T06:02:55;6.60;;;5.90;;
14470;SDS011;7321;50.802;4.336;2024-01-30T06:05:20;7.07;;;5.93;;
14470;SDS011;7321;50.802;4.336;2024-01-30T06:07:46;8.50;;;6.20;;
14470;SDS011;7321;50.802;4.336;2024-01-30T06:10:12;6.53;;;5.93;;
14470;SDS011;7321;50.802;4.336;2024-01-30T06:12:39;7.10;;;6.40;;
14470;SDS011;7321;50.802;4.336;2024-01-30T06:15:05;9.57;;;6.37;;
14470;SDS011;7321;50.802;4.336;2024-01-30T06:17:32;8.10;;;6.70;;
14470;SDS011;7321;50.802;4.336;2024-01-30T06:19:58;10.30;;;6.17;;
14470;SDS011;7321;50.802;4.336;2024-01-30T06:22:24;7.00;;;5.97;;
14470;SDS011;7321;50.802;4.336;2024-01-30T06:24:50;9.53;;;6.30;;
14470;SDS011;7321;50.802;4.336;2024-01-30T06:27:16;7.63;;;6.07;;
14470;SDS011;7321;50.802;4.336;2024-01-30T06:29:42;11.03;;;6.47;;
14470;SDS011;7321;50.802;4.336;2024-01-30T06:32:08;13.80;;;6.83;;
14470;SDS011;7321;50.802;4.336;2024-01-30T06:34:34;7.67;;;6.07;;
14470;SDS011;7321;50.802;4.336;2024-01-30T06:37:00;8.43;;;6.83;;
14470;SDS011;7321;50.802;4.336;2024-01-30T06:39:26;8.47;;;6.23;;
14470;SDS011;7321;50.802;4.336;2024-01-30T06:41:52;7.10;;;6.40;;
14470;SDS011;7321;50.802;4.336;2024-01-30T06:44:18;9.23;;;6.70;;
14470;SDS011;7321;50.802;4.336;2024-01-30T06:46:44;8.53;;;6.57;;
14470;SDS011;7321;50.802;4.336;2024-01-30T06:49:10;7.27;;;6.50;;
14470;SDS011;7321;50.802;4.336;2024-01-30T06:51:36;7.57;;;6.87;;
14470;SDS011;7321;50.802;4.336;2024-01-30T06:54:03;9.27;;;6.57;;
14470;SDS011;7321;50.802;4.336;2024-01-30T06:56:29;8.50;;;6.43;;
14470;SDS011;7321;50.802;4.336;2024-01-30T06:58:55;9.53;;;6.93;;
14470;SDS011;7321;50.802;4.336;2024-01-30T07:01:27;9.27;;;6.50;;
14470;SDS011;7321;50.802;4.336;2024-01-30T07:03:55;10.03;;;6.53;;
14470;SDS011;7321;50.802;4.336;2024-01-30T07:06:21;7.23;;;6.10;;
14470;SDS011;7321;50.802;4.336;2024-01-30T07:08:49;6.97;;;6.27;;
14470;SDS011;7321;50.802;4.336;2024-01-30T07:11:18;9.73;;;6.90;;
14470;SDS011;7321;50.802;4.336;2024-01-30T07:13:46;7.70;;;6.60;;
14470;SDS011;7321;50.802;4.336;2024-01-30T07:16:13;10.23;;;6.90;;
14470;SDS011;7321;50.802;4.336;2024-01-30T07:18:39;11.93;;;7.80;;
14470;SDS011;7321;50.802;4.336;2024-01-30T07:21:05;11.27;;;7.43;;
14470;SDS011;7321;50.802;4.336;2024-01-30T07:23:31;11.63;;;8.27;;
14470;SDS011;7321;50.802;4.336;2024-01-30T07:25:59;8.30;;;7.40;;
14470;SDS011;7321;50.802;4.336;2024-01-30T07:28:25;11.40;;;7.10;;
14470;SDS011;7321;50.802;4.336;2024-01-30T07:30:51;11.87;;;7.43;;
14470;SDS011;7321;50.802;4.336;2024-01-30T07:33:17;9.23;;;7.20;;
14470;SDS011;7321;50.802;4.336;2024-01-30T07:35:43;8.70;;;6.60;;
14470;SDS011;7321;50.802;4.336;2024-01-30T07:38:11;11.73;;;7.33;;
14470;SDS011;7321;50.802;4.336;2024-01-30T07:40:36;11.37;;;7.30;;
14470;SDS011;7321;50.802;4.336;2024-01-30T07:43:02;9.90;;;7.23;;
14470;SDS011;7321;50.802;4.336;2024-01-30T07:45:28;10.83;;;7.03;;
14470;SDS011;7321;50.802;4.336;2024-01-30T07:47:57;10.97;;;7.50;;
14470;SDS011;7321;50.802;4.336;2024-01-30T07:50:25;12.00;;;7.63;;
14470;SDS011;7321;50.802;4.336;2024-01-30T07:52:51;11.30;;;8.10;;
14470;SDS011;7321;50.802;4.336;2024-01-30T07:55:22;11.03;;;8.00;;
14470;SDS011;7321;50.802;4.336;2024-01-30T07:57:52;12.90;;;8.70;;
14470;SDS011;7321;50.802;4.336;2024-01-30T08:00:19;12.33;;;7.80;;
14470;SDS011;7321;50.802;4.336;2024-01-30T08:02:45;15.00;;;8.63;;
14470;SDS011;7321;50.802;4.336;2024-01-30T08:05:11;10.77;;;7.97;;
14470;SDS011;7321;50.802;4.336;2024-01-30T08:07:39;11.13;;;7.73;;
14470;SDS011;7321;50.802;4.336;2024-01-30T08:10:05;14.97;;;8.40;;
14470;SDS011;7321;50.802;4.336;2024-01-30T08:12:31;13.63;;;8.17;;
14470;SDS011;7321;50.802;4.336;2024-01-30T08:14:57;13.53;;;8.20;;
14470;SDS011;7321;50.802;4.336;2024-01-30T08:17:23;14.20;;;9.07;;
14470;SDS011;7321;50.802;4.336;2024-01-30T08:19:49;12.40;;;8.07;;
14470;SDS011;7321;50.802;4.336;2024-01-30T08:22:14;10.37;;;7.53;;
14470;SDS011;7321;50.802;4.336;2024-01-30T08:24:41;13.10;;;8.17;;
14470;SDS011;7321;50.802;4.336;2024-01-30T08:27:07;16.73;;;8.43;;
14470;SDS011;7321;50.802;4.336;2024-01-30T08:29:35;14.27;;;8.60;;
14470;SDS011;7321;50.802;4.336;2024-01-30T08:32:01;11.20;;;8.33;;
14470;SDS011;7321;50.802;4.336;2024-01-30T08:34:33;12.13;;;8.00;;
14470;SDS011;7321;50.802;4.336;2024-01-30T08:36:59;11.07;;;7.83;;
14470;SDS011;7321;50.802;4.336;2024-01-30T08:39:25;13.00;;;8.77;;
14470;SDS011;7321;50.802;4.336;2024-01-30T08:41:51;9.57;;;7.60;;
14470;SDS011;7321;50.802;4.336;2024-01-30T08:44:17;14.30;;;8.60;;
14470;SDS011;7321;50.802;4.336;2024-01-30T08:46:43;15.13;;;9.07;;
14470;SDS011;7321;50.802;4.336;2024-01-30T08:49:10;11.40;;;8.20;;
14470;SDS011;7321;50.802;4.336;2024-01-30T08:51:38;9.83;;;7.60;;
14470;SDS011;7321;50.802;4.336;2024-01-30T08:54:04;12.33;;;8.43;;
14470;SDS011;7321;50.802;4.336;2024-01-30T08:56:30;11.40;;;7.97;;
14470;SDS011;7321;50.802;4.336;2024-01-30T08:58:56;13.97;;;8.10;;
14470;SDS011;7321;50.802;4.336;2024-01-30T09:01:22;13.77;;;9.43;;
14470;SDS011;7321;50.802;4.336;2024-01-30T09:03:48;11.77;;;8.57;;
14470;SDS011;7321;50.802;4.336;2024-01-30T09:06:13;13.67;;;8.37;;
14470;SDS011;7321;50.802;4.336;2024-01-30T09:08:39;14.07;;;8.67;;
14470;SDS011;7321;50.802;4.336;2024-01-30T09:11:14;11.47;;;7.80;;
14470;SDS011;7321;50.802;4.336;2024-01-30T09:13:41;13.17;;;7.67;;
14470;SDS011;7321;50.802;4.336;2024-01-30T09:16:07;11.13;;;8.07;;
14470;SDS011;7321;50.802;4.336;2024-01-30T09:18:33;11.43;;;8.20;;
14470;SDS011;7321;50.802;4.336;2024-01-30T09:20:59;12.30;;;9.07;;
14470;SDS011;7321;50.802;4.336;2024-01-30T09:23:25;15.07;;;8.30;;
14470;SDS011;7321;50.802;4.336;2024-01-30T09:25:52;13.87;;;9.07;;
14470;SDS011;7321;50.802;4.336;2024-01-30T09:28:20;12.43;;;8.20;;
14470;SDS011;7321;50.802;4.336;2024-01-30T09:30:46;12.33;;;9.07;;
14470;SDS011;7321;50.802;4.336;2024-01-30T09:33:12;15.13;;;8.90;;
14470;SDS011;7321;50.802;4.336;2024-01-30T09:35:37;12.40;;;8.60;;
14470;SDS011;7321;50.802;4.336;2024-01-30T09:38:03;14.53;;;9.57;;
14470;SDS011;7321;50.802;4.336;2024-01-30T09:40:29;16.73;;;12.60;;
14470;SDS011;7321;50.802;4.336;2024-01-30T09:42:55;14.67;;;9.53;;
14470;SDS011;7321;50.802;4.336;2024-01-30T09:45:24;15.37;;;9.50;;
14470;SDS011;7321;50.802;4.336;2024-01-30T09:47:51;13.87;;;9.73;;
14470;SDS011;7321;50.802;4.336;2024-01-30T09:50:18;17.17;;;10.17;;
14470;SDS011;7321;50.802;4.336;2024-01-30T09:52:44;12.73;;;9.03;;
14470;SDS011;7321;50.802;4.336;2024-01-30T09:55:11;15.80;;;10.30;;
14470;SDS011;7321;50.802;4.336;2024-01-30T09:57:37;12.87;;;9.20;;
14470;SDS011;7321;50.802;4.336;2024-01-30T10:00:04;13.80;;;9.73;;
14470;SDS011;7321;50.802;4.336;2024-01-30T10:02:34;15.97;;;9.97;;
14470;SDS011;7321;50.802;4.336;2024-01-30T10:05:00;13.20;;;9.33;;
14470;SDS011;7321;50.802;4.336;2024-01-30T10:07:27;17.90;;;10.20;;
14470;SDS011;7321;50.802;4.336;2024-01-30T10:09:53;14.53;;;10.13;;
14470;SDS011;7321;50.802;4.336;2024-01-30T10:12:21;15.47;;;9.10;;
14470;SDS011;7321;50.802;4.336;2024-01-30T10:14:47;19.07;;;10.53;;
14470;SDS011;7321;50.802;4.336;2024-01-30T10:17:13;16.67;;;9.93;;
14470;SDS011;7321;50.802;4.336;2024-01-30T10:19:39;15.07;;;10.60;;
14470;SDS011;7321;50.802;4.336;2024-01-30T10:22:06;15.93;;;9.90;;
14470;SDS011;7321;50.802;4.336;2024-01-30T10:24:35;14.83;;;9.90;;
14470;SDS011;7321;50.802;4.336;2024-01-30T10:27:02;13.40;;;10.17;;
14470;SDS011;7321;50.802;4.336;2024-01-30T10:29:28;16.17;;;11.13;;
14470;SDS011;7321;50.802;4.336;2024-01-30T10:32:00;17.57;;;9.53;;
14470;SDS011;7321;50.802;4.336;2024-01-30T10:34:26;13.37;;;9.80;;
14470;SDS011;7321;50.802;4.336;2024-01-30T10:37:13;12.80;;;9.33;;
14470;SDS011;7321;50.802;4.336;2024-01-30T10:39:45;14.23;;;10.10;;
14470;SDS011;7321;50.802;4.336;2024-01-30T10:42:12;14.73;;;10.37;;
14470;SDS011;7321;50.802;4.336;2024-01-30T10:44:43;11.73;;;9.33;;
14470;SDS011;7321;50.802;4.336;2024-01-30T10:47:30;11.70;;;7.83;;
14470;SDS011;7321;50.802;4.336;2024-01-30T10:49:56;12.93;;;8.23;;
14470;SDS011;7321;50.802;4.336;2024-01-30T10:52:25;12.23;;;8.23;;
14470;SDS011;7321;50.802;4.336;2024-01-30T10:54:51;13.13;;;7.40;;
14470;SDS011;7321;50.802;4.336;2024-01-30T10:57:19;10.87;;;7.23;;
14470;SDS011;7321;50.802;4.336;2024-01-30T10:59:48;12.57;;;7.13;;
14470;SDS011;7321;50.802;4.336;2024-01-30T11:02:15;11.03;;;7.00;;
14470;SDS011;7321;50.802;4.336;2024-01-30T11:04:42;11.97;;;6.90;;
14470;SDS011;7321;50.802;4.336;2024-01-30T11:07:16;9.00;;;6.10;;
14470;SDS011;7321;50.802;4.336;2024-01-30T11:09:52;8.87;;;6.13;;
14470;SDS011;7321;50.802;4.336;2024-01-30T11:12:22;6.50;;;5.60;;
14470;SDS011;7321;50.802;4.336;2024-01-30T11:20:22;6.90;;;4.60;;
14470;SDS011;7321;50.802;4.336;2024-01-30T11:22:52;10.20;;;5.40;;
14470;SDS011;7321;50.802;4.336;2024-01-30T11:25:21;11.93;;;7.90;;
14470;SDS011;7321;50.802;4.336;2024-01-30T11:27:52;7.87;;;3.43;;
14470;SDS011;7321;50.802;4.336;2024-01-30T11:30:26;6.67;;;2.60;;
14470;SDS011;7321;50.802;4.336;2024-01-30T11:35:43;4.00;;;2.20;;
14470;SDS011;7321;50.802;4.336;2024-01-30T11:38:13;4.23;;;2.17;;
14470;SDS011;7321;50.802;4.336;2024-01-30T11:40:43;3.67;;;2.10;;
14470;SDS011;7321;50.802;4.336;2024-01-30T11:43:09;3.07;;;1.90;;
14470;SDS011;7321;50.802;4.336;2024-01-30T11:45:35;3.43;;;2.40;;
14470;SDS011;7321;50.802;4.336;2024-01-30T11:48:02;4.33;;;1.97;;
14470;SDS011;7321;50.802;4.336;2024-01-30T11:50:29;3.10;;;1.20;;
14470;SDS011;7321;50.802;4.336;2024-01-30T11:52:55;2.17;;;1.10;;
14470;SDS011;7321;50.802;4.336;2024-01-30T11:55:22;4.07;;;1.60;;
14470;SDS011;7321;50.802;4.336;2024-01-30T11:57:49;3.70;;;1.10;;
14470;SDS011;7321;50.802;4.336;2024-01-30T12:00:29;3.13;;;1.00;;
14470;SDS011;7321;50.802;4.336;2024-01-30T12:02:59;6.57;;;1.00;;
14470;SDS011;7321;50.802;4.336;2024-01-30T12:05:28;2.27;;;1.00;;
14470;SDS011;7321;50.802;4.336;2024-01-30T12:07:54;5.00;;;1.00;;
14470;SDS011;7321;50.802;4.336;2024-01-30T12:10:27;2.43;;;1.00;;
14470;SDS011;7321;50.802;4.336;2024-01-30T12:12:53;3.93;;;1.20;;
14470;SDS011;7321;50.802;4.336;2024-01-30T12:15:21;5.43;;;2.87;;
14470;SDS011;7321;50.802;4.336;2024-01-30T12:17:47;3.37;;;1.23;;
14470;SDS011;7321;50.802;4.336;2024-01-30T12:20:19;2.43;;;1.00;;
14470;SDS011;7321;50.802;4.336;2024-01-30T12:22:47;3.67;;;1.00;;
14470;SDS011;7321;50.802;4.336;2024-01-30T12:25:14;2.23;;;0.80;;
14470;SDS011;7321;50.802;4.336;2024-01-30T12:27:42;4.80;;;0.90;;
14470;SDS011;7321;50.802;4.336;2024-01-30T12:30:09;3.80;;;1.27;;
14470;SDS011;7321;50.802;4.336;2024-01-30T12:32:37;2.00;;;0.80;;
14470;SDS011;7321;50.802;4.336;2024-01-30T12:35:11;4.37;;;0.90;;
14470;SDS011;7321;50.802;4.336;2024-01-30T12:37:38;4.07;;;0.80;;
14470;SDS011;7321;50.802;4.336;2024-01-30T12:40:05;1.80;;;0.63;;
14470;SDS011;7321;50.802;4.336;2024-01-30T12:42:35;1.90;;;0.80;;
14470;SDS011;7321;50.802;4.336;2024-01-30T12:45:04;2.40;;;0.70;;
14470;SDS011;7321;50.802;4.336;2024-01-30T12:47:31;3.27;;;1.27;;
14470;SDS011;7321;50.802;4.336;2024-01-30T12:49:57;2.47;;;1.00;;
14470;SDS011;7321;50.802;4.336;2024-01-30T12:52:23;4.40;;;0.73;;
14470;SDS011;7321;50.802;4.336;2024-01-30T12:54:49;1.30;;;0.80;;
14470;SDS011;7321;50.802;4.336;2024-01-30T12:57:16;3.80;;;1.10;;
14470;SDS011;7321;50.802;4.336;2024-01-30T12:59:43;2.67;;;1.30;;
14470;SDS011;7321;50.802;4.336;2024-01-30T13:02:10;4.03;;;1.57;;
14470;SDS011;7321;50.802;4.336;2024-01-30T13:04:37;3.07;;;1.50;;
14470;SDS011;7321;50.802;4.336;2024-01-30T13:07:03;3.73;;;1.50;;
14470;SDS011;7321;50.802;4.336;2024-01-30T13:09:29;2.67;;;1.07;;
14470;SDS011;7321;50.802;4.336;2024-01-30T13:11:56;2.93;;;1.20;;
14470;SDS011;7321;50.802;4.336;2024-01-30T13:14:23;2.57;;;1.03;;
14470;SDS011;7321;50.802;4.336;2024-01-30T13:16:49;2.87;;;1.30;;
14470;SDS011;7321;50.802;4.336;2024-01-30T13:19:16;3.23;;;0.87;;
14470;SDS011;7321;50.802;4.336;2024-01-30T13:21:42;4.43;;;1.10;;
14470;SDS011;7321;50.802;4.336;2024-01-30T13:24:08;3.27;;;1.00;;
14470;SDS011;7321;50.802;4.336;2024-01-30T13:26:34;4.37;;;1.73;;
14470;SDS011;7321;50.802;4.336;2024-01-30T13:29:00;7.03;;;1.60;;
14470;SDS011;7321;50.802;4.336;2024-01-30T13:31:29;5.23;;;2.20;;
14470;SDS011;7321;50.802;4.336;2024-01-30T13:33:55;4.73;;;1.10;;
14470;SDS011;7321;50.802;4.336;2024-01-30T13:36:21;7.83;;;1.27;;
14470;SDS011;7321;50.802;4.336;2024-01-30T13:38:49;4.90;;;1.13;;
14470;SDS011;7321;50.802;4.336;2024-01-30T13:41:15;3.07;;;0.90;;
14470;SDS011;7321;50.802;4.336;2024-01-30T13:43:43;4.73;;;1.73;;
14470;SDS011;7321;50.802;4.336;2024-01-30T13:46:09;2.20;;;1.10;;
14470;SDS011;7321;50.802;4.336;2024-01-30T13:48:35;1.37;;;1.00;;
14470;SDS011;7321;50.802;4.336;2024-01-30T13:51:01;5.33;;;1.70;;
14470;SDS011;7321;50.802;4.336;2024-01-30T13:53:27;3.40;;;1.30;;
14470;SDS011;7321;50.802;4.336;2024-01-30T13:55:53;4.07;;;1.20;;
14470;SDS011;7321;50.802;4.336;2024-01-30T13:58:19;3.30;;;1.07;;
14470;SDS011;7321;50.802;4.336;2024-01-30T14:00:45;3.33;;;1.40;;
14470;SDS011;7321;50.802;4.336;2024-01-30T14:03:11;4.90;;;1.50;;
14470;SDS011;7321;50.802;4.336;2024-01-30T14:05:36;3.23;;;1.13;;
14470;SDS011;7321;50.802;4.336;2024-01-30T14:08:02;3.47;;;1.00;;
14470;SDS011;7321;50.802;4.336;2024-01-30T14:10:28;10.33;;;4.40;;
14470;SDS011;7321;50.802;4.336;2024-01-30T14:12:54;4.83;;;2.10;;
14470;SDS011;7321;50.802;4.336;2024-01-30T14:15:21;9.23;;;4.47;;
14470;SDS011;7321;50.802;4.336;2024-01-30T14:17:47;5.33;;;2.20;;
14470;SDS011;7321;50.802;4.336;2024-01-30T14:20:15;3.17;;;1.17;;
14470;SDS011;7321;50.802;4.336;2024-01-30T14:22:43;2.77;;;1.40;;
14470;SDS011;7321;50.802;4.336;2024-01-30T14:25:09;2.37;;;1.30;;
14470;SDS011;7321;50.802;4.336;2024-01-30T14:27:35;2.00;;;1.40;;
14470;SDS011;7321;50.802;4.336;2024-01-30T14:30:01;3.07;;;1.00;;
14470;SDS011;7321;50.802;4.336;2024-01-30T14:32:28;1.40;;;0.73;;
14470;SDS011;7321;50.802;4.336;2024-01-30T14:34:54;4.23;;;1.73;;
14470;SDS011;7321;50.802;4.336;2024-01-30T14:37:20;4.33;;;3.03;;
14470;SDS011;7321;50.802;4.336;2024-01-30T14:39:46;3.77;;;1.20;;
14470;SDS011;7321;50.802;4.336;2024-01-30T14:42:13;6.83;;;1.90;;
14470;SDS011;7321;50.802;4.336;2024-01-30T14:44:39;4.27;;;1.20;;
14470;SDS011;7321;50.802;4.336;2024-01-30T14:47:05;5.40;;;1.40;;
14470;SDS011;7321;50.802;4.336;2024-01-30T14:49:31;2.17;;;1.17;;
14470;SDS011;7321;50.802;4.336;2024-01-30T14:51:57;4.00;;;1.00;;
14470;SDS011;7321;50.802;4.336;2024-01-30T14:54:26;3.57;;;1.20;;
14470;SDS011;7321;50.802;4.336;2024-01-30T14:56:52;3.93;;;1.13;;
14470;SDS011;7321;50.802;4.336;2024-01-30T14:59:18;5.67;;;1.50;;
14470;SDS011;7321;50.802;4.336;2024-01-30T15:01:45;3.43;;;1.13;;
14470;SDS011;7321;50.802;4.336;2024-01-30T15:04:10;4.13;;;1.30;;